sensor_id;sensor_type;location;lat;lon;timestamp;temperature;humidity
73112;HTU21D;61301;51.956;5.876;2023-05-27T00:00:07;14.98;48.54
73112;HTU21D;61301;51.956;5.876;2023-05-27T00:02:34;14.93;48.91
73112;HTU21D;61301;51.956;5.876;2023-05-27T00:05:00;14.81;49.35
73112;HTU21D;61301;51.956;5.876;2023-05-27T00:07:27;14.77;50.03
73112;HTU21D;61301;51.956;5.876;2023-05-27T00:09:53;14.67;50.18
73112;HTU21D;61301;51.956;5.876;2023-05-27T00:12:20;14.69;50.41
73112;HTU21D;61301;51.956;5.876;2023-05-27T00:14:46;14.65;50.02
73112;HTU21D;61301;51.956;5.876;2023-05-27T00:17:12;14.57;50.26
73112;HTU21D;61301;51.956;5.876;2023-05-27T00:19:40;14.55;50.27
73112;HTU21D;61301;51.956;5.876;2023-05-27T00:22:06;14.57;50.16
73112;HTU21D;61301;51.956;5.876;2023-05-27T00:24:34;14.53;50.85
73112;HTU21D;61301;51.956;5.876;2023-05-27T00:27:00;14.55;50.59
73112;HTU21D;61301;51.956;5.876;2023-05-27T00:29:28;14.62;50.19
73112;HTU21D;61301;51.956;5.876;2023-05-27T00:31:54;14.58;50.37
73112;HTU21D;61301;51.956;5.876;2023-05-27T00:34:20;14.55;50.44
73112;HTU21D;61301;51.956;5.876;2023-05-27T00:36:46;14.48;50.76
73112;HTU21D;61301;51.956;5.876;2023-05-27T00:39:12;14.43;51.11
73112;HTU21D;61301;51.956;5.876;2023-05-27T00:41:43;14.39;51.53
73112;HTU21D;61301;51.956;5.876;2023-05-27T00:44:12;14.35;51.16
73112;HTU21D;61301;51.956;5.876;2023-05-27T00:46:39;14.34;51.58
73112;HTU21D;61301;51.956;5.876;2023-05-27T00:49:05;14.38;51.19
73112;HTU21D;61301;51.956;5.876;2023-05-27T00:51:31;14.33;51.24
73112;HTU21D;61301;51.956;5.876;2023-05-27T00:53:57;14.23;52.12
73112;HTU21D;61301;51.956;5.876;2023-05-27T00:56:23;14.14;51.95
73112;HTU21D;61301;51.956;5.876;2023-05-27T00:58:51;14.12;52.10
73112;HTU21D;61301;51.956;5.876;2023-05-27T01:01:17;14.12;52.14
73112;HTU21D;61301;51.956;5.876;2023-05-27T01:03:45;13.98;52.61
73112;HTU21D;61301;51.956;5.876;2023-05-27T01:11:41;13.86;53.35
73112;HTU21D;61301;51.956;5.876;2023-05-27T01:14:10;13.84;53.59
73112;HTU21D;61301;51.956;5.876;2023-05-27T01:16:41;13.86;53.68
73112;HTU21D;61301;51.956;5.876;2023-05-27T01:19:14;13.83;53.42
73112;HTU21D;61301;51.956;5.876;2023-05-27T01:21:45;13.78;53.66
73112;HTU21D;61301;51.956;5.876;2023-05-27T01:24:12;13.82;53.53
73112;HTU21D;61301;51.956;5.876;2023-05-27T01:26:39;13.81;53.33
73112;HTU21D;61301;51.956;5.876;2023-05-27T01:29:06;13.69;54.06
73112;HTU21D;61301;51.956;5.876;2023-05-27T01:31:49;13.63;54.76
73112;HTU21D;61301;51.956;5.876;2023-05-27T01:34:26;13.66;54.15
73112;HTU21D;61301;51.956;5.876;2023-05-27T01:36:57;13.66;54.13
73112;HTU21D;61301;51.956;5.876;2023-05-27T01:39:25;13.64;54.11
73112;HTU21D;61301;51.956;5.876;2023-05-27T01:41:52;13.51;54.60
73112;HTU21D;61301;51.956;5.876;2023-05-27T01:44:19;13.55;54.62
73112;HTU21D;61301;51.956;5.876;2023-05-27T01:46:46;13.54;54.69
73112;HTU21D;61301;51.956;5.876;2023-05-27T01:49:13;13.49;54.62
73112;HTU21D;61301;51.956;5.876;2023-05-27T01:51:39;13.51;54.61
73112;HTU21D;61301;51.956;5.876;2023-05-27T01:54:05;13.43;54.87
73112;HTU21D;61301;51.956;5.876;2023-05-27T01:56:32;13.50;54.69
73112;HTU21D;61301;51.956;5.876;2023-05-27T01:58:58;13.45;54.65
73112;HTU21D;61301;51.956;5.876;2023-05-27T02:01:24;13.47;54.99
73112;HTU21D;61301;51.956;5.876;2023-05-27T02:03:53;13.48;54.53
73112;HTU21D;61301;51.956;5.876;2023-05-27T02:06:19;13.53;54.35
73112;HTU21D;61301;51.956;5.876;2023-05-27T02:08:45;13.55;54.60
73112;HTU21D;61301;51.956;5.876;2023-05-27T02:11:11;13.53;54.47
73112;HTU21D;61301;51.956;5.876;2023-05-27T02:13:37;13.46;54.82
73112;HTU21D;61301;51.956;5.876;2023-05-27T02:16:04;13.50;54.64
73112;HTU21D;61301;51.956;5.876;2023-05-27T02:18:30;13.37;54.96
73112;HTU21D;61301;51.956;5.876;2023-05-27T02:20:57;13.43;54.62
73112;HTU21D;61301;51.956;5.876;2023-05-27T02:23:23;13.51;54.51
73112;HTU21D;61301;51.956;5.876;2023-05-27T02:25:49;13.51;54.14
73112;HTU21D;61301;51.956;5.876;2023-05-27T02:28:15;13.49;54.33
73112;HTU21D;61301;51.956;5.876;2023-05-27T02:30:41;13.46;54.76
73112;HTU21D;61301;51.956;5.876;2023-05-27T02:33:07;13.44;54.58
73112;HTU21D;61301;51.956;5.876;2023-05-27T02:35:34;13.43;54.68
73112;HTU21D;61301;51.956;5.876;2023-05-27T02:38:00;13.37;54.92
73112;HTU21D;61301;51.956;5.876;2023-05-27T02:40:27;13.34;54.96
73112;HTU21D;61301;51.956;5.876;2023-05-27T02:42:58;13.31;55.07
73112;HTU21D;61301;51.956;5.876;2023-05-27T02:45:24;13.25;55.07
73112;HTU21D;61301;51.956;5.876;2023-05-27T02:47:51;13.25;55.50
73112;HTU21D;61301;51.956;5.876;2023-05-27T02:50:17;13.11;55.84
73112;HTU21D;61301;51.956;5.876;2023-05-27T02:52:43;13.01;56.22
73112;HTU21D;61301;51.956;5.876;2023-05-27T02:55:09;12.99;56.49
73112;HTU21D;61301;51.956;5.876;2023-05-27T02:57:35;12.92;56.50
73112;HTU21D;61301;51.956;5.876;2023-05-27T03:00:03;13.00;56.19
73112;HTU21D;61301;51.956;5.876;2023-05-27T03:02:29;13.00;56.39
73112;HTU21D;61301;51.956;5.876;2023-05-27T03:04:56;12.88;56.70
73112;HTU21D;61301;51.956;5.876;2023-05-27T03:07:22;12.90;56.61
73112;HTU21D;61301;51.956;5.876;2023-05-27T03:09:49;12.94;56.61
73112;HTU21D;61301;51.956;5.876;2023-05-27T03:12:15;12.85;57.02
73112;HTU21D;61301;51.956;5.876;2023-05-27T03:14:41;12.88;56.77
73112;HTU21D;61301;51.956;5.876;2023-05-27T03:17:07;12.86;56.60
73112;HTU21D;61301;51.956;5.876;2023-05-27T03:19:33;12.97;56.17
73112;HTU21D;61301;51.956;5.876;2023-05-27T03:21:59;12.92;56.45
73112;HTU21D;61301;51.956;5.876;2023-05-27T03:24:26;12.88;56.42
73112;HTU21D;61301;51.956;5.876;2023-05-27T03:26:53;12.99;55.92
73112;HTU21D;61301;51.956;5.876;2023-05-27T03:29:19;13.02;55.90
73112;HTU21D;61301;51.956;5.876;2023-05-27T03:31:46;13.05;55.51
73112;HTU21D;61301;51.956;5.876;2023-05-27T03:34:15;13.08;55.55
73112;HTU21D;61301;51.956;5.876;2023-05-27T03:36:41;13.07;55.40
73112;HTU21D;61301;51.956;5.876;2023-05-27T03:39:12;13.09;55.23
73112;HTU21D;61301;51.956;5.876;2023-05-27T03:41:44;13.08;55.40
73112;HTU21D;61301;51.956;5.876;2023-05-27T03:44:12;13.02;55.77
73112;HTU21D;61301;51.956;5.876;2023-05-27T03:46:38;13.06;55.55
73112;HTU21D;61301;51.956;5.876;2023-05-27T03:49:04;13.05;55.65
73112;HTU21D;61301;51.956;5.876;2023-05-27T03:51:31;13.00;55.78
73112;HTU21D;61301;51.956;5.876;2023-05-27T03:53:57;12.95;56.04
73112;HTU21D;61301;51.956;5.876;2023-05-27T03:56:23;12.93;55.97
73112;HTU21D;61301;51.956;5.876;2023-05-27T03:58:50;12.97;55.94
73112;HTU21D;61301;51.956;5.876;2023-05-27T04:01:16;12.95;56.03
73112;HTU21D;61301;51.956;5.876;2023-05-27T04:03:43;13.00;56.16
73112;HTU21D;61301;51.956;5.876;2023-05-27T04:06:09;13.10;55.68
73112;HTU21D;61301;51.956;5.876;2023-05-27T04:08:35;13.15;55.70
73112;HTU21D;61301;51.956;5.876;2023-05-27T04:11:03;13.02;56.11
73112;HTU21D;61301;51.956;5.876;2023-05-27T04:13:29;13.00;56.43
73112;HTU21D;61301;51.956;5.876;2023-05-27T04:15:55;12.96;56.39
73112;HTU21D;61301;51.956;5.876;2023-05-27T04:18:22;13.05;56.32
73112;HTU21D;61301;51.956;5.876;2023-05-27T04:20:48;13.00;56.78
73112;HTU21D;61301;51.956;5.876;2023-05-27T04:23:16;12.93;56.99
73112;HTU21D;61301;51.956;5.876;2023-05-27T04:25:43;12.94;57.12
73112;HTU21D;61301;51.956;5.876;2023-05-27T04:28:11;12.96;57.10
73112;HTU21D;61301;51.956;5.876;2023-05-27T04:30:41;12.97;57.17
73112;HTU21D;61301;51.956;5.876;2023-05-27T04:33:15;13.07;56.86
73112;HTU21D;61301;51.956;5.876;2023-05-27T04:35:42;13.04;56.91
73112;HTU21D;61301;51.956;5.876;2023-05-27T04:38:13;13.08;56.81
73112;HTU21D;61301;51.956;5.876;2023-05-27T04:40:54;13.06;57.12
73112;HTU21D;61301;51.956;5.876;2023-05-27T04:43:41;13.08;57.04
73112;HTU21D;61301;51.956;5.876;2023-05-27T04:46:08;13.15;57.00
73112;HTU21D;61301;51.956;5.876;2023-05-27T04:48:35;13.14;57.14
73112;HTU21D;61301;51.956;5.876;2023-05-27T04:51:01;13.14;57.15
73112;HTU21D;61301;51.956;5.876;2023-05-27T04:53:28;13.19;56.93
73112;HTU21D;61301;51.956;5.876;2023-05-27T04:55:54;13.26;56.91
73112;HTU21D;61301;51.956;5.876;2023-05-27T04:58:20;13.41;56.67
73112;HTU21D;61301;51.956;5.876;2023-05-27T05:00:48;13.51;56.34
73112;HTU21D;61301;51.956;5.876;2023-05-27T05:03:20;13.53;56.41
73112;HTU21D;61301;51.956;5.876;2023-05-27T05:05:51;13.51;56.76
73112;HTU21D;61301;51.956;5.876;2023-05-27T05:08:20;13.53;56.82
73112;HTU21D;61301;51.956;5.876;2023-05-27T05:10:48;13.64;56.45
73112;HTU21D;61301;51.956;5.876;2023-05-27T05:13:15;13.67;56.71
73112;HTU21D;61301;51.956;5.876;2023-05-27T05:15:42;13.70;56.78
73112;HTU21D;61301;51.956;5.876;2023-05-27T05:18:11;13.78;56.57
73112;HTU21D;61301;51.956;5.876;2023-05-27T05:20:38;13.89;56.34
73112;HTU21D;61301;51.956;5.876;2023-05-27T05:23:07;13.95;56.44
73112;HTU21D;61301;51.956;5.876;2023-05-27T05:25:34;13.95;56.87
73112;HTU21D;61301;51.956;5.876;2023-05-27T05:28:05;13.92;57.03
73112;HTU21D;61301;51.956;5.876;2023-05-27T05:30:31;13.92;57.13
73112;HTU21D;61301;51.956;5.876;2023-05-27T05:32:58;13.94;57.26
73112;HTU21D;61301;51.956;5.876;2023-05-27T05:35:28;13.99;57.23
73112;HTU21D;61301;51.956;5.876;2023-05-27T05:38:06;13.97;57.57
73112;HTU21D;61301;51.956;5.876;2023-05-27T05:40:32;14.07;57.39
73112;HTU21D;61301;51.956;5.876;2023-05-27T05:43:12;14.12;57.20
73112;HTU21D;61301;51.956;5.876;2023-05-27T05:45:38;14.11;57.41
73112;HTU21D;61301;51.956;5.876;2023-05-27T05:48:04;14.22;57.17
73112;HTU21D;61301;51.956;5.876;2023-05-27T05:50:31;14.41;56.81
73112;HTU21D;61301;51.956;5.876;2023-05-27T05:52:58;14.50;56.71
73112;HTU21D;61301;51.956;5.876;2023-05-27T05:55:24;14.64;56.48
73112;HTU21D;61301;51.956;5.876;2023-05-27T05:57:50;14.63;56.48
73112;HTU21D;61301;51.956;5.876;2023-05-27T06:00:19;14.59;56.61
73112;HTU21D;61301;51.956;5.876;2023-05-27T06:02:45;14.70;56.59
73112;HTU21D;61301;51.956;5.876;2023-05-27T06:05:24;14.81;56.24
73112;HTU21D;61301;51.956;5.876;2023-05-27T06:07:52;14.87;56.00
73112;HTU21D;61301;51.956;5.876;2023-05-27T06:10:19;14.94;55.94
73112;HTU21D;61301;51.956;5.876;2023-05-27T06:12:46;15.03;55.61
73112;HTU21D;61301;51.956;5.876;2023-05-27T06:15:12;15.14;55.54
73112;HTU21D;61301;51.956;5.876;2023-05-27T06:17:41;15.19;55.49
73112;HTU21D;61301;51.956;5.876;2023-05-27T06:20:08;15.29;55.36
73112;HTU21D;61301;51.956;5.876;2023-05-27T06:22:34;15.32;55.23
73112;HTU21D;61301;51.956;5.876;2023-05-27T06:25:23;15.27;55.20
73112;HTU21D;61301;51.956;5.876;2023-05-27T06:27:55;15.34;55.23
73112;HTU21D;61301;51.956;5.876;2023-05-27T06:30:22;15.41;54.94
73112;HTU21D;61301;51.956;5.876;2023-05-27T06:32:49;15.45;54.84
73112;HTU21D;61301;51.956;5.876;2023-05-27T06:35:16;15.53;54.67
73112;HTU21D;61301;51.956;5.876;2023-05-27T06:37:42;15.63;54.71
73112;HTU21D;61301;51.956;5.876;2023-05-27T06:40:10;15.80;54.38
73112;HTU21D;61301;51.956;5.876;2023-05-27T06:42:37;15.99;54.06
73112;HTU21D;61301;51.956;5.876;2023-05-27T06:45:26;16.11;53.60
73112;HTU21D;61301;51.956;5.876;2023-05-27T06:48:03;16.14;53.46
73112;HTU21D;61301;51.956;5.876;2023-05-27T06:50:29;16.22;53.25
73112;HTU21D;61301;51.956;5.876;2023-05-27T06:52:55;16.30;53.19
73112;HTU21D;61301;51.956;5.876;2023-05-27T06:55:37;16.41;53.14
73112;HTU21D;61301;51.956;5.876;2023-05-27T06:58:03;16.56;52.71
73112;HTU21D;61301;51.956;5.876;2023-05-27T07:00:44;16.66;52.54
73112;HTU21D;61301;51.956;5.876;2023-05-27T07:03:23;16.81;52.12
73112;HTU21D;61301;51.956;5.876;2023-05-27T07:05:49;16.86;51.95
73112;HTU21D;61301;51.956;5.876;2023-05-27T07:08:15;16.98;51.83
73112;HTU21D;61301;51.956;5.876;2023-05-27T07:10:42;17.17;51.64
73112;HTU21D;61301;51.956;5.876;2023-05-27T07:13:09;17.35;51.13
73112;HTU21D;61301;51.956;5.876;2023-05-27T07:15:44;17.51;50.74
73112;HTU21D;61301;51.956;5.876;2023-05-27T07:18:11;17.63;50.27
73112;HTU21D;61301;51.956;5.876;2023-05-27T07:20:38;17.66;50.08
73112;HTU21D;61301;51.956;5.876;2023-05-27T07:23:07;17.70;50.02
73112;HTU21D;61301;51.956;5.876;2023-05-27T07:25:35;17.64;49.65
73112;HTU21D;61301;51.956;5.876;2023-05-27T07:28:02;17.59;49.92
73112;HTU21D;61301;51.956;5.876;2023-05-27T07:30:28;17.69;49.94
73112;HTU21D;61301;51.956;5.876;2023-05-27T07:33:00;17.89;49.75
73112;HTU21D;61301;51.956;5.876;2023-05-27T07:35:27;18.09;49.43
73112;HTU21D;61301;51.956;5.876;2023-05-27T07:37:53;18.21;48.82
73112;HTU21D;61301;51.956;5.876;2023-05-27T07:40:19;18.15;48.64
73112;HTU21D;61301;51.956;5.876;2023-05-27T07:42:45;18.21;48.37
73112;HTU21D;61301;51.956;5.876;2023-05-27T07:45:12;18.18;49.03
73112;HTU21D;61301;51.956;5.876;2023-05-27T07:47:39;18.37;48.86
73112;HTU21D;61301;51.956;5.876;2023-05-27T07:50:05;18.70;48.34
73112;HTU21D;61301;51.956;5.876;2023-05-27T07:52:57;18.95;48.04
73112;HTU21D;61301;51.956;5.876;2023-05-27T07:55:26;19.20;47.22
73112;HTU21D;61301;51.956;5.876;2023-05-27T07:57:54;19.26;46.64
73112;HTU21D;61301;51.956;5.876;2023-05-27T08:00:20;19.36;46.57
73112;HTU21D;61301;51.956;5.876;2023-05-27T08:02:55;19.45;46.13
73112;HTU21D;61301;51.956;5.876;2023-05-27T08:05:46;19.50;45.70
73112;HTU21D;61301;51.956;5.876;2023-05-27T08:08:35;19.44;45.64
73112;HTU21D;61301;51.956;5.876;2023-05-27T08:11:20;19.50;45.67
73112;HTU21D;61301;51.956;5.876;2023-05-27T08:13:49;19.66;45.75
73112;HTU21D;61301;51.956;5.876;2023-05-27T08:16:33;19.80;45.54
73112;HTU21D;61301;51.956;5.876;2023-05-27T08:19:05;19.97;45.44
73112;HTU21D;61301;51.956;5.876;2023-05-27T08:21:45;20.03;45.03
73112;HTU21D;61301;51.956;5.876;2023-05-27T08:24:31;20.15;44.48
73112;HTU21D;61301;51.956;5.876;2023-05-27T08:27:17;20.26;44.59
73112;HTU21D;61301;51.956;5.876;2023-05-27T08:29:56;20.35;44.32
73112;HTU21D;61301;51.956;5.876;2023-05-27T08:32:42;20.44;44.19
73112;HTU21D;61301;51.956;5.876;2023-05-27T08:35:09;20.63;44.51
73112;HTU21D;61301;51.956;5.876;2023-05-27T08:37:38;20.92;43.54
73112;HTU21D;61301;51.956;5.876;2023-05-27T08:40:07;21.05;43.06
73112;HTU21D;61301;51.956;5.876;2023-05-27T08:42:42;21.13;43.26
73112;HTU21D;61301;51.956;5.876;2023-05-27T08:45:10;21.24;42.57
73112;HTU21D;61301;51.956;5.876;2023-05-27T08:47:38;21.32;42.99
73112;HTU21D;61301;51.956;5.876;2023-05-27T08:50:09;21.52;42.03
73112;HTU21D;61301;51.956;5.876;2023-05-27T08:52:42;21.67;41.74
73112;HTU21D;61301;51.956;5.876;2023-05-27T08:55:11;21.68;41.78
73112;HTU21D;61301;51.956;5.876;2023-05-27T08:57:44;21.92;41.74
73112;HTU21D;61301;51.956;5.876;2023-05-27T09:00:12;22.17;41.33
73112;HTU21D;61301;51.956;5.876;2023-05-27T09:02:40;22.13;40.58
73112;HTU21D;61301;51.956;5.876;2023-05-27T09:05:09;22.27;40.55
73112;HTU21D;61301;51.956;5.876;2023-05-27T09:07:36;22.37;40.50
73112;HTU21D;61301;51.956;5.876;2023-05-27T09:10:04;22.49;40.20
73112;HTU21D;61301;51.956;5.876;2023-05-27T09:12:34;22.62;39.72
73112;HTU21D;61301;51.956;5.876;2023-05-27T09:15:00;22.62;39.30
73112;HTU21D;61301;51.956;5.876;2023-05-27T09:17:27;22.41;39.57
73112;HTU21D;61301;51.956;5.876;2023-05-27T09:19:53;22.47;40.01
73112;HTU21D;61301;51.956;5.876;2023-05-27T09:22:24;22.55;39.56
73112;HTU21D;61301;51.956;5.876;2023-05-27T09:24:54;22.53;39.60
73112;HTU21D;61301;51.956;5.876;2023-05-27T09:27:32;22.55;39.78
73112;HTU21D;61301;51.956;5.876;2023-05-27T09:30:08;22.76;39.88
73112;HTU21D;61301;51.956;5.876;2023-05-27T09:32:35;23.00;39.08
73112;HTU21D;61301;51.956;5.876;2023-05-27T09:35:01;23.16;38.73
73112;HTU21D;61301;51.956;5.876;2023-05-27T09:37:29;23.22;37.96
73112;HTU21D;61301;51.956;5.876;2023-05-27T09:39:59;23.44;37.72
73112;HTU21D;61301;51.956;5.876;2023-05-27T09:42:25;23.34;37.80
73112;HTU21D;61301;51.956;5.876;2023-05-27T09:44:54;23.50;38.06
73112;HTU21D;61301;51.956;5.876;2023-05-27T09:47:20;23.32;36.81
73112;HTU21D;61301;51.956;5.876;2023-05-27T09:49:49;23.38;37.46
73112;HTU21D;61301;51.956;5.876;2023-05-27T09:52:17;23.64;37.59
73112;HTU21D;61301;51.956;5.876;2023-05-27T09:54:46;23.79;37.19
73112;HTU21D;61301;51.956;5.876;2023-05-27T09:57:13;23.98;36.73
73112;HTU21D;61301;51.956;5.876;2023-05-27T09:59:40;24.08;36.27
73112;HTU21D;61301;51.956;5.876;2023-05-27T10:02:07;24.21;35.63
73112;HTU21D;61301;51.956;5.876;2023-05-27T10:04:33;24.31;35.52
73112;HTU21D;61301;51.956;5.876;2023-05-27T10:06:59;24.45;35.29
73112;HTU21D;61301;51.956;5.876;2023-05-27T10:09:25;24.50;35.53
73112;HTU21D;61301;51.956;5.876;2023-05-27T10:11:53;24.63;34.88
73112;HTU21D;61301;51.956;5.876;2023-05-27T10:14:19;24.62;34.75
73112;HTU21D;61301;51.956;5.876;2023-05-27T10:16:55;24.82;34.41
73112;HTU21D;61301;51.956;5.876;2023-05-27T10:19:21;25.03;34.39
73112;HTU21D;61301;51.956;5.876;2023-05-27T10:21:47;25.19;33.76
73112;HTU21D;61301;51.956;5.876;2023-05-27T10:24:14;25.24;33.09
73112;HTU21D;61301;51.956;5.876;2023-05-27T10:26:42;25.34;33.37
73112;HTU21D;61301;51.956;5.876;2023-05-27T10:29:10;25.56;33.02
73112;HTU21D;61301;51.956;5.876;2023-05-27T10:31:44;25.53;32.79
73112;HTU21D;61301;51.956;5.876;2023-05-27T10:34:10;25.57;33.12
73112;HTU21D;61301;51.956;5.876;2023-05-27T10:36:36;25.56;31.67
73112;HTU21D;61301;51.956;5.876;2023-05-27T10:39:04;25.36;31.74
73112;HTU21D;61301;51.956;5.876;2023-05-27T10:41:49;25.35;32.64
73112;HTU21D;61301;51.956;5.876;2023-05-27T10:44:38;25.54;31.46
73112;HTU21D;61301;51.956;5.876;2023-05-27T10:47:11;25.79;31.45
73112;HTU21D;61301;51.956;5.876;2023-05-27T10:49:40;25.97;31.67
73112;HTU21D;61301;51.956;5.876;2023-05-27T10:52:11;26.13;31.64
73112;HTU21D;61301;51.956;5.876;2023-05-27T10:54:42;26.28;31.49
73112;HTU21D;61301;51.956;5.876;2023-05-27T10:57:09;26.27;31.13
73112;HTU21D;61301;51.956;5.876;2023-05-27T10:59:50;26.39;29.64
73112;HTU21D;61301;51.956;5.876;2023-05-27T11:02:17;26.33;30.80
73112;HTU21D;61301;51.956;5.876;2023-05-27T11:04:43;26.48;30.57
73112;HTU21D;61301;51.956;5.876;2023-05-27T11:07:09;26.53;29.84
73112;HTU21D;61301;51.956;5.876;2023-05-27T11:09:52;26.49;29.90
73112;HTU21D;61301;51.956;5.876;2023-05-27T11:12:23;26.56;29.86
73112;HTU21D;61301;51.956;5.876;2023-05-27T11:14:52;26.64;28.71
73112;HTU21D;61301;51.956;5.876;2023-05-27T11:17:19;26.62;28.93
73112;HTU21D;61301;51.956;5.876;2023-05-27T11:19:45;26.71;29.01
73112;HTU21D;61301;51.956;5.876;2023-05-27T11:22:12;26.94;28.96
73112;HTU21D;61301;51.956;5.876;2023-05-27T11:24:39;26.84;29.39
73112;HTU21D;61301;51.956;5.876;2023-05-27T11:27:09;27.05;28.62
73112;HTU21D;61301;51.956;5.876;2023-05-27T11:29:39;26.93;27.34
73112;HTU21D;61301;51.956;5.876;2023-05-27T11:32:06;26.92;28.13
73112;HTU21D;61301;51.956;5.876;2023-05-27T11:34:36;27.04;28.49
73112;HTU21D;61301;51.956;5.876;2023-05-27T11:37:03;27.22;27.09
73112;HTU21D;61301;51.956;5.876;2023-05-27T11:39:33;27.38;27.44
73112;HTU21D;61301;51.956;5.876;2023-05-27T11:41:58;27.53;27.37
73112;HTU21D;61301;51.956;5.876;2023-05-27T11:44:25;27.59;26.16
73112;HTU21D;61301;51.956;5.876;2023-05-27T11:46:58;27.23;27.39
73112;HTU21D;61301;51.956;5.876;2023-05-27T11:49:26;26.97;28.28
73112;HTU21D;61301;51.956;5.876;2023-05-27T11:51:55;27.13;27.65
73112;HTU21D;61301;51.956;5.876;2023-05-27T11:54:28;27.37;27.62
73112;HTU21D;61301;51.956;5.876;2023-05-27T11:56:56;27.58;27.52
73112;HTU21D;61301;51.956;5.876;2023-05-27T11:59:23;27.73;26.80
73112;HTU21D;61301;51.956;5.876;2023-05-27T12:01:50;27.80;26.93
73112;HTU21D;61301;51.956;5.876;2023-05-27T12:04:17;27.84;27.19
73112;HTU21D;61301;51.956;5.876;2023-05-27T12:06:44;28.00;26.20
73112;HTU21D;61301;51.956;5.876;2023-05-27T12:09:11;28.12;26.69
73112;HTU21D;61301;51.956;5.876;2023-05-27T12:11:38;28.43;25.90
73112;HTU21D;61301;51.956;5.876;2023-05-27T12:14:05;28.68;25.54
73112;HTU21D;61301;51.956;5.876;2023-05-27T12:16:31;28.74;24.98
73112;HTU21D;61301;51.956;5.876;2023-05-27T12:18:58;28.60;24.89
73112;HTU21D;61301;51.956;5.876;2023-05-27T12:21:24;28.54;25.35
73112;HTU21D;61301;51.956;5.876;2023-05-27T12:23:50;28.41;25.16
73112;HTU21D;61301;51.956;5.876;2023-05-27T12:26:17;28.37;24.98
73112;HTU21D;61301;51.956;5.876;2023-05-27T12:28:44;28.28;24.98
73112;HTU21D;61301;51.956;5.876;2023-05-27T12:31:11;28.40;25.39
73112;HTU21D;61301;51.956;5.876;2023-05-27T12:33:37;28.64;25.68
73112;HTU21D;61301;51.956;5.876;2023-05-27T12:36:03;29.01;25.26
73112;HTU21D;61301;51.956;5.876;2023-05-27T12:38:31;29.08;23.37
73112;HTU21D;61301;51.956;5.876;2023-05-27T12:40:58;29.03;24.00
73112;HTU21D;61301;51.956;5.876;2023-05-27T12:43:24;29.05;23.57
73112;HTU21D;61301;51.956;5.876;2023-05-27T12:45:50;28.98;23.94
73112;HTU21D;61301;51.956;5.876;2023-05-27T12:48:18;28.90;23.51
73112;HTU21D;61301;51.956;5.876;2023-05-27T12:50:44;28.87;24.15
73112;HTU21D;61301;51.956;5.876;2023-05-27T12:53:10;28.95;24.11
73112;HTU21D;61301;51.956;5.876;2023-05-27T12:55:37;29.04;24.30
73112;HTU21D;61301;51.956;5.876;2023-05-27T12:58:03;29.23;24.02
73112;HTU21D;61301;51.956;5.876;2023-05-27T13:00:29;29.19;24.02
73112;HTU21D;61301;51.956;5.876;2023-05-27T13:02:57;29.13;23.90
73112;HTU21D;61301;51.956;5.876;2023-05-27T13:05:23;29.13;24.15
73112;HTU21D;61301;51.956;5.876;2023-05-27T13:07:58;29.32;24.17
73112;HTU21D;61301;51.956;5.876;2023-05-27T13:10:25;29.50;23.91
73112;HTU21D;61301;51.956;5.876;2023-05-27T13:12:51;29.58;24.36
73112;HTU21D;61301;51.956;5.876;2023-05-27T13:15:17;29.73;24.19
73112;HTU21D;61301;51.956;5.876;2023-05-27T13:17:44;29.98;24.08
73112;HTU21D;61301;51.956;5.876;2023-05-27T13:20:14;30.08;23.62
73112;HTU21D;61301;51.956;5.876;2023-05-27T13:22:42;30.05;23.21
73112;HTU21D;61301;51.956;5.876;2023-05-27T13:25:08;30.00;23.46
73112;HTU21D;61301;51.956;5.876;2023-05-27T13:27:34;30.06;23.30
73112;HTU21D;61301;51.956;5.876;2023-05-27T13:30:01;30.00;23.04
73112;HTU21D;61301;51.956;5.876;2023-05-27T13:32:30;29.81;23.40
73112;HTU21D;61301;51.956;5.876;2023-05-27T13:34:56;29.58;23.18
73112;HTU21D;61301;51.956;5.876;2023-05-27T13:37:22;29.50;23.43
73112;HTU21D;61301;51.956;5.876;2023-05-27T13:39:48;29.44;23.37
73112;HTU21D;61301;51.956;5.876;2023-05-27T13:42:14;29.33;23.59
73112;HTU21D;61301;51.956;5.876;2023-05-27T13:44:40;29.33;23.67
73112;HTU21D;61301;51.956;5.876;2023-05-27T13:47:07;29.42;23.79
73112;HTU21D;61301;51.956;5.876;2023-05-27T13:49:33;29.60;23.75
73112;HTU21D;61301;51.956;5.876;2023-05-27T13:51:59;29.82;23.46
73112;HTU21D;61301;51.956;5.876;2023-05-27T13:54:25;29.92;23.43
73112;HTU21D;61301;51.956;5.876;2023-05-27T13:56:53;30.12;23.52
73112;HTU21D;61301;51.956;5.876;2023-05-27T13:59:19;30.42;22.44
73112;HTU21D;61301;51.956;5.876;2023-05-27T14:01:46;30.50;22.84
73112;HTU21D;61301;51.956;5.876;2023-05-27T14:04:12;30.46;22.42
73112;HTU21D;61301;51.956;5.876;2023-05-27T14:06:37;30.59;22.91
73112;HTU21D;61301;51.956;5.876;2023-05-27T14:09:04;30.93;22.31
73112;HTU21D;61301;51.956;5.876;2023-05-27T14:11:30;30.92;21.72
73112;HTU21D;61301;51.956;5.876;2023-05-27T14:13:56;30.84;22.36
73112;HTU21D;61301;51.956;5.876;2023-05-27T14:16:23;30.86;22.14
73112;HTU21D;61301;51.956;5.876;2023-05-27T14:18:49;30.93;22.38
73112;HTU21D;61301;51.956;5.876;2023-05-27T14:21:15;31.09;22.08
73112;HTU21D;61301;51.956;5.876;2023-05-27T14:23:43;31.25;21.82
73112;HTU21D;61301;51.956;5.876;2023-05-27T14:26:09;31.43;21.49
73112;HTU21D;61301;51.956;5.876;2023-05-27T14:28:35;31.18;20.91
73112;HTU21D;61301;51.956;5.876;2023-05-27T14:31:01;31.14;21.41
73112;HTU21D;61301;51.956;5.876;2023-05-27T14:33:27;31.26;21.32
73112;HTU21D;61301;51.956;5.876;2023-05-27T14:35:53;31.35;20.83
73112;HTU21D;61301;51.956;5.876;2023-05-27T14:38:19;31.21;20.82
73112;HTU21D;61301;51.956;5.876;2023-05-27T14:40:46;31.07;21.05
73112;HTU21D;61301;51.956;5.876;2023-05-27T14:43:13;30.91;20.95
73112;HTU21D;61301;51.956;5.876;2023-05-27T14:45:40;30.79;21.23
73112;HTU21D;61301;51.956;5.876;2023-05-27T14:48:07;30.81;20.64
73112;HTU21D;61301;51.956;5.876;2023-05-27T14:50:33;30.79;21.19
73112;HTU21D;61301;51.956;5.876;2023-05-27T14:53:00;30.81;20.44
73112;HTU21D;61301;51.956;5.876;2023-05-27T14:55:26;30.66;21.18
73112;HTU21D;61301;51.956;5.876;2023-05-27T14:57:52;30.57;21.62
73112;HTU21D;61301;51.956;5.876;2023-05-27T15:00:18;30.76;21.75
73112;HTU21D;61301;51.956;5.876;2023-05-27T15:02:44;30.99;21.53
73112;HTU21D;61301;51.956;5.876;2023-05-27T15:05:10;31.12;21.26
73112;HTU21D;61301;51.956;5.876;2023-05-27T15:07:37;31.22;21.44
73112;HTU21D;61301;51.956;5.876;2023-05-27T15:10:07;31.30;20.61
73112;HTU21D;61301;51.956;5.876;2023-05-27T15:12:43;31.15;20.20
73112;HTU21D;61301;51.956;5.876;2023-05-27T15:15:17;30.94;20.43
73112;HTU21D;61301;51.956;5.876;2023-05-27T15:17:44;30.76;20.58
73112;HTU21D;61301;51.956;5.876;2023-05-27T15:20:14;30.67;20.52
73112;HTU21D;61301;51.956;5.876;2023-05-27T15:22:40;30.66;20.89
73112;HTU21D;61301;51.956;5.876;2023-05-27T15:25:07;30.68;20.40
73112;HTU21D;61301;51.956;5.876;2023-05-27T15:27:33;30.64;20.67